Time;durP1;ratioP1;P1;durP2;ratioP2;P2;SDS_P1;SDS_P2;PMS_P1;PMS_P2;Temp;Humidity;BMP_temperature;BMP_pressure;BME280_temperature;BME280_humidity;BME280_pressure;Samples;Min_cycle;Max_cycle;Signal;HPM_P1;HPM_P2
2023/04/12 00:01:45;;;;;;;5.90;1.85;;;11.50;99.90;;;;;;5040262;28;20069;-44
2023/04/12 00:04:13;;;;;;;4.85;1.67;;;11.40;99.90;;;;;;5040347;28;20676;-43
2023/04/12 00:06:41;;;;;;;7.05;1.77;;;11.50;99.90;;;;;;5039216;28;20685;-43
2023/04/12 00:09:07;;;;;;;5.72;1.98;;;11.40;99.90;;;;;;5040386;28;20659;-42
2023/04/12 00:11:34;;;;;;;5.90;1.88;;;11.30;99.90;;;;;;5040395;28;20027;-42
2023/04/12 00:13:59;;;;;;;3.13;1.20;;;11.30;99.90;;;;;;5039649;28;20040;-42
2023/04/12 00:16:25;;;;;;;7.32;3.20;;;11.30;99.90;;;;;;5040409;28;20029;-43
2023/04/12 00:18:50;;;;;;;5.82;1.77;;;11.20;99.90;;;;;;5040573;28;20028;-43
2023/04/12 00:21:18;;;;;;;4.97;1.80;;;11.10;99.90;;;;;;5039955;28;20040;-42
2023/04/12 00:23:48;;;;;;;4.53;1.70;;;11.10;99.90;;;;;;5040697;28;20033;-43
2023/04/12 00:26:14;;;;;;;4.38;1.45;;;11.00;99.90;;;;;;5039707;28;20027;-44
2023/04/12 00:28:41;;;;;;;4.97;1.52;;;10.90;99.90;;;;;;5039258;28;20033;-43
2023/04/12 00:31:06;;;;;;;4.20;1.60;;;10.90;99.90;;;;;;5039479;28;20032;-44
2023/04/12 00:33:36;;;;;;;4.50;1.80;;;10.80;99.90;;;;;;5039469;28;20117;-43
2023/04/12 00:36:02;;;;;;;3.60;1.35;;;10.80;99.90;;;;;;5040246;28;20988;-42
2023/04/12 00:38:27;;;;;;;3.88;1.50;;;10.80;99.90;;;;;;5039050;28;20024;-43
2023/04/12 00:40:53;;;;;;;8.15;2.72;;;10.70;99.90;;;;;;5038209;28;20661;-43
2023/04/12 00:43:19;;;;;;;5.28;2.03;;;10.70;99.90;;;;;;5039918;28;20039;-42
2023/04/12 00:45:46;;;;;;;7.22;1.83;;;10.70;99.90;;;;;;5040335;28;20683;-43
2023/04/12 00:48:11;;;;;;;6.30;2.00;;;10.60;99.90;;;;;;5038521;28;20788;-43
2023/04/12 00:50:40;;;;;;;5.80;1.80;;;10.50;99.90;;;;;;5039782;28;20029;-43
2023/04/12 00:53:08;;;;;;;4.68;1.60;;;10.50;99.90;;;;;;5038847;28;20353;-43
2023/04/12 00:55:34;;;;;;;3.28;1.40;;;10.50;99.90;;;;;;5040248;28;20033;-43
2023/04/12 00:58:04;;;;;;;3.40;1.40;;;10.40;99.90;;;;;;5044085;28;20025;-43
2023/04/12 01:00:30;;;;;;;3.33;1.10;;;10.40;99.90;;;;;;5044018;28;20396;-43
2023/04/12 01:02:55;;;;;;;4.93;1.10;;;10.40;99.90;;;;;;5042978;28;20013;-43
2023/04/12 01:05:22;;;;;;;2.80;1.20;;;10.40;99.90;;;;;;5044473;28;20024;-43
2023/04/12 01:08:04;;;;;;;3.15;1.40;;;10.40;99.90;;;;;;5043077;28;20017;-43
2023/04/12 01:10:47;;;;;;;4.38;1.20;;;10.40;99.90;;;;;;5033490;28;20480;-43
2023/04/12 01:13:19;;;;;;;4.82;1.00;;;10.40;99.90;;;;;;5043838;28;20041;-42
2023/04/12 01:15:53;;;;;;;2.90;1.40;;;10.30;99.90;;;;;;5043127;28;20036;-43
2023/04/12 01:18:22;;;;;;;2.35;1.10;;;10.30;99.90;;;;;;5043548;28;20033;-43
2023/04/12 01:21:01;;;;;;;3.15;1.17;;;10.30;99.90;;;;;;5043437;28;20041;-44
2023/04/12 01:23:47;;;;;;;3.45;1.10;;;10.20;99.90;;;;;;5042235;28;20575;-43
2023/04/12 01:26:47;;;;;;;3.50;1.48;;;10.30;99.90;;;;;;5043167;28;20040;-42
2023/04/12 01:29:15;;;;;;;3.45;1.20;;;10.20;99.90;;;;;;5019051;28;20034;-43
2023/04/12 01:31:53;;;;;;;4.30;1.27;;;10.20;99.90;;;;;;5022928;28;20120;-44
2023/04/12 01:34:21;;;;;;;3.70;1.20;;;10.20;99.90;;;;;;5043653;28;20041;-44
2023/04/12 01:36:48;;;;;;;1.95;1.27;;;10.20;99.90;;;;;;5042172;28;20064;-43
2023/04/12 01:39:16;;;;;;;3.47;1.30;;;10.10;99.90;;;;;;5043135;28;20544;-43
2023/04/12 01:41:44;;;;;;;4.18;1.10;;;10.10;99.90;;;;;;5042760;28;20083;-43
2023/04/12 01:44:16;;;;;;;4.00;1.10;;;10.10;99.90;;;;;;5042065;28;20028;-42
2023/04/12 01:46:46;;;;;;;3.80;1.20;;;10.00;99.90;;;;;;5042693;28;20163;-43
2023/04/12 01:49:12;;;;;;;3.88;1.58;;;10.00;99.90;;;;;;5042730;28;20036;-44
2023/04/12 01:51:56;;;;;;;3.17;1.38;;;10.00;99.90;;;;;;5042269;28;20029;-43
2023/04/12 01:54:29;;;;;;;4.18;1.42;;;9.90;99.90;;;;;;5042687;28;20049;-43
2023/04/12 01:56:58;;;;;;;3.25;1.23;;;9.90;99.90;;;;;;5043226;28;20036;-43
2023/04/12 01:59:33;;;;;;;4.15;1.50;;;9.90;99.90;;;;;;5041770;28;20036;-43
2023/04/12 02:01:59;;;;;;;2.67;0.90;;;9.90;99.90;;;;;;5031516;28;20052;-43
2023/04/12 02:04:26;;;;;;;6.32;1.38;;;9.90;99.90;;;;;;5042178;28;20064;-43
2023/04/12 02:06:53;;;;;;;3.47;1.20;;;9.90;99.90;;;;;;5041000;28;20025;-43
2023/04/12 02:09:21;;;;;;;6.05;1.50;;;9.90;99.90;;;;;;5042713;28;20021;-42
2023/04/12 02:11:47;;;;;;;5.55;2.45;;;9.90;99.90;;;;;;5042471;28;20127;-42
2023/04/12 02:14:14;;;;;;;3.97;1.40;;;9.90;99.90;;;;;;5043029;28;20045;-43
2023/04/12 02:16:41;;;;;;;2.33;1.13;;;9.90;99.90;;;;;;5042219;28;20835;-44
2023/04/12 02:19:07;;;;;;;2.67;1.38;;;9.90;99.90;;;;;;5042213;28;20035;-42
2023/04/12 02:21:42;;;;;;;2.35;1.17;;;9.90;99.90;;;;;;5042735;28;20664;-43
2023/04/12 02:24:09;;;;;;;4.88;1.38;;;9.90;99.90;;;;;;5022621;28;20052;-43
2023/04/12 02:26:36;;;;;;;6.00;1.50;;;9.90;99.90;;;;;;5036811;28;20541;-43
2023/04/12 02:29:02;;;;;;;3.67;1.40;;;9.90;99.90;;;;;;5042188;28;20495;-43
2023/04/12 02:31:29;;;;;;;2.58;1.27;;;9.90;99.90;;;;;;5042153;28;20028;-43
2023/04/12 02:33:55;;;;;;;3.47;1.20;;;9.90;99.90;;;;;;5041609;28;20029;-43
2023/04/12 02:36:20;;;;;;;2.33;1.02;;;9.90;99.90;;;;;;5042251;28;20029;-43
2023/04/12 02:38:49;;;;;;;6.57;1.25;;;9.90;99.90;;;;;;5042704;28;20128;-43
2023/04/12 02:41:19;;;;;;;3.15;1.27;;;9.90;99.90;;;;;;5041889;28;20048;-43
2023/04/12 02:43:45;;;;;;;3.25;1.33;;;9.90;99.90;;;;;;5042631;28;20112;-43
2023/04/12 02:46:15;;;;;;;4.10;1.50;;;9.90;99.90;;;;;;5042535;28;20056;-43
2023/04/12 02:48:40;;;;;;;2.22;1.00;;;9.90;99.90;;;;;;5041558;28;20044;-43
2023/04/12 02:51:09;;;;;;;1.95;1.05;;;9.90;99.90;;;;;;5042259;28;20306;-43
2023/04/12 02:53:34;;;;;;;3.00;1.20;;;9.90;99.90;;;;;;5042151;28;20033;-43
2023/04/12 02:56:00;;;;;;;3.90;1.85;;;10.00;99.90;;;;;;5041246;28;20037;-43
2023/04/12 02:58:26;;;;;;;2.00;1.10;;;10.00;99.90;;;;;;5041273;28;20025;-42
2023/04/12 03:00:52;;;;;;;2.42;0.90;;;9.90;99.90;;;;;;5041961;28;20037;-42
2023/04/12 03:03:17;;;;;;;2.28;1.20;;;9.90;99.90;;;;;;5040762;28;20048;-43
2023/04/12 03:05:46;;;;;;;1.38;0.90;;;9.90;99.90;;;;;;5041984;28;20025;-42
2023/04/12 03:08:14;;;;;;;1.50;1.00;;;9.90;99.90;;;;;;5040827;28;20028;-43
2023/04/12 03:10:40;;;;;;;2.03;1.05;;;10.00;99.90;;;;;;5040984;28;20392;-42
2023/04/12 03:13:05;;;;;;;3.70;1.40;;;10.00;99.90;;;;;;5041532;28;20185;-43
2023/04/12 03:15:31;;;;;;;2.17;0.98;;;10.00;99.90;;;;;;5040874;28;20064;-43
2023/04/12 03:17:57;;;;;;;2.50;1.15;;;9.90;99.90;;;;;;5041018;28;20104;-44
2023/04/12 03:20:24;;;;;;;1.95;0.90;;;9.80;99.90;;;;;;5041189;28;20040;-43
2023/04/12 03:22:50;;;;;;;5.47;1.45;;;9.80;99.90;;;;;;5040097;28;20095;-43
2023/04/12 03:25:17;;;;;;;2.05;1.08;;;9.80;99.90;;;;;;5040662;28;20037;-43
2023/04/12 03:27:43;;;;;;;2.08;1.00;;;9.90;99.90;;;;;;5040643;28;20104;-42
2023/04/12 03:30:10;;;;;;;2.15;1.30;;;9.80;99.90;;;;;;5040911;28;20093;-43
2023/04/12 03:32:36;;;;;;;2.58;1.00;;;9.80;99.90;;;;;;5041238;28;20017;-44
2023/04/12 03:35:02;;;;;;;1.60;0.90;;;9.80;99.90;;;;;;5040266;28;20028;-42
2023/04/12 03:37:28;;;;;;;3.92;0.80;;;9.80;99.90;;;;;;5040098;28;20029;-43
2023/04/12 03:39:53;;;;;;;1.98;1.00;;;9.80;99.90;;;;;;5040710;28;20049;-43
2023/04/12 03:42:19;;;;;;;2.50;1.02;;;9.80;99.90;;;;;;5040973;28;20025;-42
2023/04/12 03:44:44;;;;;;;3.08;0.90;;;9.80;99.90;;;;;;5039641;28;20112;-42
2023/04/12 03:47:10;;;;;;;3.22;0.90;;;9.80;99.90;;;;;;5040560;28;20535;-43
2023/04/12 03:49:39;;;;;;;3.42;1.17;;;9.70;99.90;;;;;;5040278;28;20052;-43
2023/04/12 03:52:06;;;;;;;3.40;1.27;;;9.80;99.90;;;;;;5040727;28;20067;-43
2023/04/12 03:54:32;;;;;;;4.32;1.50;;;9.70;99.90;;;;;;5041015;28;20484;-43
2023/04/12 03:56:57;;;;;;;4.07;1.23;;;9.70;99.90;;;;;;5041314;28;20067;-42
2023/04/12 03:59:23;;;;;;;2.63;1.30;;;9.70;99.90;;;;;;5040008;28;20495;-44
2023/04/12 04:01:48;;;;;;;3.90;1.40;;;9.60;99.90;;;;;;5040457;28;20123;-44
2023/04/12 04:04:14;;;;;;;2.25;1.08;;;9.60;99.90;;;;;;5040687;28;20029;-43
2023/04/12 04:06:39;;;;;;;1.58;0.82;;;9.60;99.90;;;;;;5039587;28;20033;-42
2023/04/12 04:09:06;;;;;;;2.90;0.93;;;9.60;99.90;;;;;;5040241;28;20020;-42
2023/04/12 04:11:31;;;;;;;2.85;1.27;;;9.50;99.90;;;;;;5039643;28;20029;-43
2023/04/12 04:13:57;;;;;;;2.50;1.10;;;9.50;99.90;;;;;;5040659;28;20020;-42
2023/04/12 04:16:22;;;;;;;1.23;0.93;;;9.50;99.90;;;;;;5040286;28;20067;-43
2023/04/12 04:18:48;;;;;;;3.35;1.20;;;9.50;99.90;;;;;;5039741;28;20028;-43
2023/04/12 04:21:14;;;;;;;2.35;1.08;;;9.50;99.90;;;;;;5041250;28;20106;-44
2023/04/12 04:23:43;;;;;;;3.88;1.00;;;9.50;99.90;;;;;;5040123;28;20079;-43
2023/04/12 04:26:09;;;;;;;2.55;0.90;;;9.40;99.90;;;;;;5038659;28;20255;-41
2023/04/12 04:28:37;;;;;;;2.35;0.90;;;9.40;99.90;;;;;;5040127;28;20484;-43
2023/04/12 04:31:05;;;;;;;3.17;2.13;;;9.40;99.90;;;;;;5042366;28;20797;-42
2023/04/12 04:33:31;;;;;;;1.35;0.90;;;9.40;99.90;;;;;;5043923;28;20032;-43
2023/04/12 04:35:57;;;;;;;2.58;0.90;;;9.40;99.90;;;;;;5043937;28;20097;-44
2023/04/12 04:38:26;;;;;;;2.75;0.90;;;9.40;99.90;;;;;;5044877;28;20029;-42
2023/04/12 04:40:54;;;;;;;2.28;1.10;;;9.40;99.90;;;;;;5043061;28;20074;-44
2023/04/12 04:43:22;;;;;;;2.10;1.13;;;9.40;99.90;;;;;;5044385;28;20033;-43
2023/04/12 04:45:53;;;;;;;2.08;0.90;;;9.40;99.90;;;;;;5043779;28;20021;-40
2023/04/12 04:48:19;;;;;;;2.05;1.02;;;9.40;99.90;;;;;;5042771;28;20053;-43
2023/04/12 04:50:45;;;;;;;2.03;0.98;;;9.40;99.90;;;;;;5043459;28;20285;-43
2023/04/12 04:53:11;;;;;;;1.75;0.80;;;9.40;99.90;;;;;;5044120;28;20075;-43
2023/04/12 04:55:37;;;;;;;1.88;0.90;;;9.40;99.90;;;;;;5042918;28;20036;-41
2023/04/12 04:58:02;;;;;;;1.30;0.80;;;9.40;99.90;;;;;;5043554;28;20021;-42
2023/04/12 05:00:28;;;;;;;1.13;0.80;;;9.40;99.90;;;;;;5043146;28;20037;-42
2023/04/12 05:02:53;;;;;;;3.15;1.30;;;9.40;99.90;;;;;;5043025;28;20021;-43
2023/04/12 05:05:22;;;;;;;1.88;1.00;;;9.40;99.90;;;;;;5043983;28;20500;-42
2023/04/12 05:07:48;;;;;;;2.08;0.98;;;9.40;99.90;;;;;;5042846;28;20079;-44
2023/04/12 05:10:13;;;;;;;2.53;0.82;;;9.40;99.90;;;;;;5043681;28;20017;-43
2023/04/12 05:12:39;;;;;;;1.00;0.90;;;9.40;99.90;;;;;;5042580;28;20040;-43
2023/04/12 05:15:05;;;;;;;2.55;0.85;;;9.40;99.90;;;;;;5042775;28;20040;-43
2023/04/12 05:17:33;;;;;;;3.53;1.00;;;9.40;99.90;;;;;;5043343;28;20017;-43
2023/04/12 05:19:59;;;;;;;1.67;0.90;;;9.40;99.90;;;;;;5043382;28;20631;-43
2023/04/12 05:22:25;;;;;;;2.05;1.30;;;9.40;99.90;;;;;;5042934;28;20060;-43
2023/04/12 05:25:00;;;;;;;2.13;0.90;;;9.40;99.90;;;;;;5043321;28;20120;-43
2023/04/12 05:27:26;;;;;;;2.65;1.10;;;9.40;99.90;;;;;;5043533;28;20464;-43
2023/04/12 05:29:52;;;;;;;2.47;1.65;;;9.40;99.90;;;;;;5043070;28;20021;-42
2023/04/12 05:32:18;;;;;;;2.00;1.30;;;9.40;99.90;;;;;;5043304;28;20039;-43
2023/04/12 05:34:44;;;;;;;1.70;1.10;;;9.40;99.90;;;;;;5043443;28;20025;-43
2023/04/12 05:37:10;;;;;;;1.45;1.02;;;9.40;99.90;;;;;;5042096;28;20047;-45
2023/04/12 05:39:35;;;;;;;2.90;0.90;;;9.40;99.90;;;;;;5043138;28;20108;-43
2023/04/12 05:42:01;;;;;;;1.35;0.90;;;9.40;99.90;;;;;;5043288;28;20037;-43
2023/04/12 05:44:29;;;;;;;2.05;1.13;;;9.40;99.90;;;;;;5042956;28;20136;-44
2023/04/12 05:46:55;;;;;;;2.75;0.95;;;9.40;99.90;;;;;;5054282;28;20098;-43
2023/04/12 05:49:20;;;;;;;2.35;0.85;;;9.50;99.90;;;;;;5040773;28;20388;-43
2023/04/12 05:51:46;;;;;;;1.77;1.20;;;9.50;99.90;;;;;;5042128;28;20024;-42
2023/04/12 05:54:11;;;;;;;2.03;1.10;;;9.50;99.90;;;;;;5043250;28;20803;-43
2023/04/12 05:56:37;;;;;;;2.20;1.38;;;9.50;99.90;;;;;;5040969;28;20032;-43
2023/04/12 05:59:06;;;;;;;2.78;1.08;;;9.50;99.90;;;;;;5041320;28;20029;-43
2023/04/12 06:01:33;;;;;;;1.25;1.00;;;9.50;99.90;;;;;;5041858;28;20037;-43
2023/04/12 06:04:01;;;;;;;1.70;0.90;;;9.40;99.90;;;;;;5042388;28;20106;-42
2023/04/12 06:06:29;;;;;;;1.10;1.00;;;9.40;99.90;;;;;;5022535;28;20473;-48
2023/04/12 06:08:56;;;;;;;1.40;1.00;;;9.40;99.90;;;;;;5036997;28;20056;-43
2023/04/12 06:11:23;;;;;;;2.25;1.40;;;9.50;99.90;;;;;;5041389;28;20096;-42
2023/04/12 06:13:48;;;;;;;1.83;1.30;;;9.50;99.90;;;;;;5041031;28;20531;-43
2023/04/12 06:16:14;;;;;;;1.00;0.90;;;9.50;99.90;;;;;;5041599;28;20033;-43
2023/04/12 06:18:40;;;;;;;2.10;1.10;;;9.50;99.90;;;;;;5041262;28;20549;-43
2023/04/12 06:21:05;;;;;;;0.98;0.82;;;9.50;99.90;;;;;;5041368;28;20054;-43
2023/04/12 06:23:34;;;;;;;2.60;2.13;;;9.60;99.90;;;;;;5041563;28;20021;-42
2023/04/12 06:25:59;;;;;;;2.60;1.20;;;9.60;99.90;;;;;;5040305;28;20028;-43
2023/04/12 06:28:25;;;;;;;4.07;2.47;;;9.60;99.90;;;;;;5041833;28;20017;-44
2023/04/12 06:30:50;;;;;;;2.15;1.60;;;9.60;99.90;;;;;;5041380;28;20021;-43
2023/04/12 06:33:16;;;;;;;1.77;1.33;;;9.60;99.90;;;;;;5041497;28;20013;-43
2023/04/12 06:35:42;;;;;;;2.78;1.38;;;9.70;99.90;;;;;;5040881;28;20546;-43
2023/04/12 06:38:07;;;;;;;1.40;0.95;;;9.70;99.90;;;;;;5040837;28;20037;-42
2023/04/12 06:40:33;;;;;;;2.55;1.00;;;9.70;99.90;;;;;;5040849;28;20048;-43
2023/04/12 06:42:58;;;;;;;2.33;1.38;;;9.60;99.90;;;;;;5042188;28;20024;-44
2023/04/12 06:45:24;;;;;;;2.17;1.00;;;9.60;99.90;;;;;;5041453;28;20062;-42
2023/04/12 06:47:50;;;;;;;2.20;0.82;;;9.60;99.90;;;;;;5050756;28;20063;-43
2023/04/12 06:50:18;;;;;;;1.33;0.98;;;9.70;99.90;;;;;;5042790;28;20175;-43
2023/04/12 06:52:44;;;;;;;2.25;1.10;;;9.70;99.90;;;;;;5039548;28;20040;-42
2023/04/12 06:55:09;;;;;;;1.75;1.10;;;9.70;99.90;;;;;;5040647;28;20033;-42
2023/04/12 06:57:35;;;;;;;1.02;0.90;;;9.70;99.90;;;;;;5041582;28;20033;-43
2023/04/12 07:00:02;;;;;;;2.67;0.90;;;9.70;99.90;;;;;;5041508;28;20549;-42
2023/04/12 07:02:27;;;;;;;1.20;0.93;;;9.70;99.90;;;;;;5041050;28;20024;-43
2023/04/12 07:04:53;;;;;;;1.48;1.00;;;9.70;99.90;;;;;;5041780;28;20110;-42
2023/04/12 07:07:22;;;;;;;2.22;1.20;;;9.70;99.90;;;;;;5041697;28;20373;-43
2023/04/12 07:09:47;;;;;;;1.23;1.08;;;9.80;99.90;;;;;;5042075;28;20095;-43
2023/04/12 07:12:13;;;;;;;1.20;1.00;;;9.80;99.90;;;;;;5041273;28;20024;-43
2023/04/12 07:14:39;;;;;;;0.82;0.77;;;9.80;99.90;;;;;;5040902;28;20028;-43
2023/04/12 07:17:05;;;;;;;1.40;0.90;;;9.80;99.90;;;;;;5041199;28;20021;-43
2023/04/12 07:19:31;;;;;;;1.85;0.95;;;9.80;99.90;;;;;;5041152;28;20051;-42
2023/04/12 07:21:56;;;;;;;1.25;0.98;;;9.90;99.90;;;;;;5040715;28;20461;-44
2023/04/12 07:24:22;;;;;;;1.00;0.82;;;9.90;99.90;;;;;;5041634;28;20578;-43
2023/04/12 07:26:48;;;;;;;1.00;1.00;;;9.90;99.90;;;;;;5040411;28;20063;-43
2023/04/12 07:29:14;;;;;;;0.85;0.80;;;9.90;99.90;;;;;;5041282;28;20141;-43
2023/04/12 07:31:40;;;;;;;1.63;0.80;;;10.00;99.90;;;;;;5040837;28;20037;-43
2023/04/12 07:34:05;;;;;;;1.00;0.85;;;10.00;99.90;;;;;;5040746;28;20029;-43
2023/04/12 07:36:31;;;;;;;1.15;1.05;;;10.00;99.90;;;;;;5040071;28;20497;-42
2023/04/12 07:38:59;;;;;;;0.93;0.90;;;10.10;99.90;;;;;;5040752;28;20495;-43
2023/04/12 07:41:25;;;;;;;1.80;0.80;;;10.10;99.90;;;;;;5040208;28;20116;-43
2023/04/12 07:43:51;;;;;;;0.70;0.70;;;10.20;99.90;;;;;;5040641;28;20060;-44
2023/04/12 07:46:17;;;;;;;1.60;0.93;;;10.20;99.90;;;;;;5040741;28;20140;-43
2023/04/12 07:48:45;;;;;;;0.63;0.63;;;10.20;99.90;;;;;;5040403;28;20135;-43
2023/04/12 07:51:11;;;;;;;1.65;1.05;;;10.20;99.90;;;;;;5039467;28;20033;-43
2023/04/12 07:53:37;;;;;;;1.25;0.90;;;10.20;99.90;;;;;;5040583;28;20028;-43
2023/04/12 07:56:05;;;;;;;1.30;1.20;;;10.20;99.90;;;;;;5040012;28;20086;-44
2023/04/12 07:58:32;;;;;;;1.17;1.08;;;10.20;99.90;;;;;;5037637;28;20076;-43
2023/04/12 08:00:57;;;;;;;3.13;1.10;;;10.30;99.90;;;;;;5040708;28;20068;-42
2023/04/12 08:03:23;;;;;;;1.33;1.00;;;10.30;99.90;;;;;;5039571;28;20127;-43
2023/04/12 08:05:52;;;;;;;1.13;1.00;;;10.40;99.90;;;;;;5038258;28;20032;-43
2023/04/12 08:08:20;;;;;;;1.58;1.00;;;10.40;99.90;;;;;;5039797;28;20507;-42
2023/04/12 08:10:46;;;;;;;1.73;1.10;;;10.50;99.90;;;;;;5038284;28;20029;-43
2023/04/12 08:13:11;;;;;;;1.75;1.30;;;10.50;99.90;;;;;;5040681;28;20088;-42
2023/04/12 08:15:37;;;;;;;1.85;1.40;;;10.50;99.90;;;;;;5039730;28;20061;-42
2023/04/12 08:18:03;;;;;;;1.77;1.30;;;10.60;99.90;;;;;;5038903;28;20421;-43
2023/04/12 08:20:28;;;;;;;1.35;1.25;;;10.60;99.90;;;;;;5040001;28;20124;-43
2023/04/12 08:22:57;;;;;;;2.38;1.17;;;10.60;99.90;;;;;;5039889;28;20078;-42
2023/04/12 08:25:23;;;;;;;3.35;1.48;;;10.70;99.90;;;;;;5039621;28;20021;-43
2023/04/12 08:27:50;;;;;;;3.75;1.42;;;10.80;99.90;;;;;;5039986;28;20029;-43
2023/04/12 08:30:19;;;;;;;3.17;1.30;;;10.80;99.90;;;;;;5040376;28;20025;-43
2023/04/12 08:32:44;;;;;;;3.20;1.33;;;10.90;99.90;;;;;;5039569;28;20021;-42
2023/04/12 08:35:10;;;;;;;3.30;1.45;;;11.00;99.90;;;;;;5040356;28;20036;-43
2023/04/12 08:37:36;;;;;;;5.75;1.35;;;11.10;99.90;;;;;;5039171;28;20120;-43
2023/04/12 08:40:05;;;;;;;1.80;0.90;;;11.10;99.90;;;;;;5037761;28;20033;-43
2023/04/12 08:42:33;;;;;;;3.08;1.10;;;11.10;99.90;;;;;;5039189;28;20403;-43
2023/04/12 08:45:07;;;;;;;3.03;1.20;;;11.10;99.90;;;;;;5036610;28;20025;-43
2023/04/12 08:47:37;;;;;;;1.85;1.20;;;11.20;99.90;;;;;;5038716;28;20156;-42
2023/04/12 08:50:08;;;;;;;3.33;1.20;;;11.20;99.90;;;;;;5038875;28;20036;-42
2023/04/12 08:52:37;;;;;;;2.50;1.23;;;11.30;99.90;;;;;;5040217;28;20032;-43
2023/04/12 08:55:07;;;;;;;4.90;1.58;;;11.30;99.90;;;;;;5039094;28;20032;-42
2023/04/12 08:57:34;;;;;;;4.68;1.77;;;11.40;99.90;;;;;;5039997;28;20040;-44
2023/04/12 09:00:01;;;;;;;4.40;1.80;;;11.40;99.90;;;;;;5039619;28;20041;-43
2023/04/12 09:02:27;;;;;;;3.83;1.70;;;11.40;99.90;;;;;;5039693;28;20057;-42
2023/04/12 09:04:53;;;;;;;3.10;1.98;;;11.50;99.90;;;;;;5039713;28;20590;-43
2023/04/12 09:07:26;;;;;;;3.10;1.85;;;11.50;99.90;;;;;;5039830;28;20032;-42
2023/04/12 09:09:52;;;;;;;3.97;1.50;;;11.50;99.90;;;;;;5039892;28;20990;-43
2023/04/12 09:12:19;;;;;;;4.15;1.55;;;11.60;99.90;;;;;;5040474;28;20028;-42
2023/04/12 09:14:45;;;;;;;4.47;1.60;;;11.60;99.90;;;;;;5038911;28;20451;-43
2023/04/12 09:17:25;;;;;;;2.05;1.10;;;11.70;99.90;;;;;;5042013;28;20021;-43
2023/04/12 09:19:52;;;;;;;2.63;1.30;;;11.90;99.90;;;;;;5043398;28;20108;-44
2023/04/12 09:22:18;;;;;;;4.47;1.70;;;12.00;99.90;;;;;;5044135;28;20192;-43
2023/04/12 09:24:46;;;;;;;4.50;1.60;;;12.10;99.90;;;;;;5043948;28;20025;-43
2023/04/12 09:27:12;;;;;;;6.03;1.58;;;12.20;99.90;;;;;;5044410;28;20024;-44
2023/04/12 09:29:37;;;;;;;5.93;2.20;;;12.30;99.90;;;;;;5042803;28;20024;-44
2023/04/12 09:32:05;;;;;;;5.93;1.88;;;12.40;99.90;;;;;;5042887;28;20017;-43
2023/04/12 09:34:33;;;;;;;6.63;1.90;;;12.60;99.90;;;;;;5043782;28;20016;-43
2023/04/12 09:36:59;;;;;;;3.42;1.70;;;12.70;99.90;;;;;;5043026;28;20025;-42
2023/04/12 09:39:32;;;;;;;4.13;1.50;;;12.90;99.90;;;;;;5042972;28;20033;-43
2023/04/12 09:42:05;;;;;;;3.67;1.80;;;13.00;99.90;;;;;;5039870;28;20025;-43
2023/04/12 09:44:30;;;;;;;6.30;1.77;;;13.10;99.90;;;;;;5042557;28;20040;-44
2023/04/12 09:46:57;;;;;;;6.10;1.73;;;13.20;99.90;;;;;;5042992;28;20041;-43
2023/04/12 09:49:40;;;;;;;7.30;2.10;;;13.30;99.90;;;;;;5042581;28;20029;-42
2023/04/12 09:52:09;;;;;;;6.80;2.15;;;13.30;99.90;;;;;;5041337;28;20040;-43
2023/04/12 09:54:44;;;;;;;3.63;1.85;;;13.40;99.90;;;;;;5042370;28;20079;-42
2023/04/12 09:57:11;;;;;;;5.43;1.83;;;13.50;99.90;;;;;;5041501;28;20039;-44
2023/04/12 09:59:40;;;;;;;4.45;1.58;;;13.50;99.90;;;;;;5041672;28;20373;-44
2023/04/12 10:02:17;;;;;;;9.50;2.00;;;13.60;99.90;;;;;;5041720;28;20025;-43
2023/04/12 10:04:43;;;;;;;7.25;2.00;;;13.60;99.90;;;;;;5040789;28;20790;-42
2023/04/12 10:07:10;;;;;;;11.43;2.25;;;13.60;99.90;;;;;;5042039;28;20025;-43
2023/04/12 10:09:43;;;;;;;7.72;2.22;;;13.60;99.90;;;;;;5042250;28;20515;-42
2023/04/12 10:12:10;;;;;;;7.25;1.80;;;13.60;99.90;;;;;;5040556;28;20037;-43
2023/04/12 10:14:36;;;;;;;7.25;1.77;;;13.60;99.90;;;;;;5039709;28;20037;-43
2023/04/12 10:17:03;;;;;;;6.18;1.88;;;13.60;99.90;;;;;;5040696;28;20031;-43
2023/04/12 10:19:30;;;;;;;5.22;1.65;;;13.60;99.90;;;;;;5041060;28;20056;-43
2023/04/12 10:21:57;;;;;;;6.65;1.60;;;13.70;99.90;;;;;;5040370;28;20021;-43
2023/04/12 10:24:24;;;;;;;6.40;1.73;;;13.80;99.90;;;;;;5041732;28;20488;-44
2023/04/12 10:27:01;;;;;;;7.63;2.42;;;13.70;99.90;;;;;;5041791;28;20903;-44
2023/04/12 10:29:35;;;;;;;6.00;1.90;;;13.70;99.90;;;;;;5041551;28;20017;-44
2023/04/12 10:32:21;;;;;;;7.47;1.55;;;13.70;99.90;;;;;;5041499;28;20025;-43
2023/04/12 10:34:55;;;;;;;6.15;1.70;;;13.80;99.90;;;;;;5041321;28;20481;-43
2023/04/12 10:37:24;;;;;;;6.45;2.35;;;13.80;99.90;;;;;;5031855;28;20095;-43
2023/04/12 10:39:53;;;;;;;8.98;2.65;;;13.90;99.90;;;;;;5041167;28;20574;-43
2023/04/12 10:42:27;;;;;;;7.20;1.80;;;14.00;99.90;;;;;;5042079;28;20053;-43
2023/04/12 10:44:55;;;;;;;7.13;1.85;;;13.90;99.90;;;;;;5041699;28;20106;-43
2023/04/12 10:47:49;;;;;;;5.03;1.85;;;13.80;99.90;;;;;;5041242;28;20045;-43
2023/04/12 10:50:24;;;;;;;8.25;2.17;;;13.70;99.90;;;;;;5042201;28;20039;-43
2023/04/12 10:53:08;;;;;;;6.78;2.15;;;13.50;99.90;;;;;;5041436;28;20108;-44
2023/04/12 10:55:34;;;;;;;9.63;2.30;;;13.30;99.90;;;;;;5021452;28;20030;-42
2023/04/12 10:58:00;;;;;;;5.43;2.20;;;13.20;99.90;;;;;;5030982;28;20025;-42
2023/04/12 11:00:54;;;;;;;9.00;2.53;;;13.10;99.90;;;;;;5041022;28;20066;-43
2023/04/12 11:03:20;;;;;;;6.70;1.90;;;13.00;99.90;;;;;;5041259;28;20032;-43
2023/04/12 11:06:03;;;;;;;6.80;1.88;;;13.00;99.90;;;;;;5041483;28;20052;-42
2023/04/12 11:08:29;;;;;;;7.50;2.15;;;13.00;99.90;;;;;;5041213;28;20028;-43
2023/04/12 11:11:02;;;;;;;8.68;2.03;;;13.00;99.90;;;;;;5041366;28;20024;-43
2023/04/12 11:13:32;;;;;;;5.68;1.75;;;13.00;99.90;;;;;;5040562;28;20082;-44
2023/04/12 11:16:01;;;;;;;8.07;1.92;;;13.10;99.90;;;;;;5041462;28;20689;-44
2023/04/12 11:18:28;;;;;;;6.10;2.05;;;13.20;99.90;;;;;;5041879;28;20021;-43
2023/04/12 11:20:55;;;;;;;5.15;1.60;;;13.30;99.90;;;;;;5040066;28;20040;-43
2023/04/12 11:23:22;;;;;;;7.85;1.83;;;13.50;99.90;;;;;;5041122;28;20017;-44
2023/04/12 11:25:54;;;;;;;3.53;1.30;;;13.60;99.90;;;;;;5041196;28;20148;-43
2023/04/12 11:28:21;;;;;;;6.82;1.90;;;13.70;99.90;;;;;;5040634;28;20094;-44
2023/04/12 11:30:57;;;;;;;7.07;1.75;;;13.90;99.90;;;;;;5040530;28;20106;-43
2023/04/12 11:33:36;;;;;;;8.35;2.08;;;14.00;99.90;;;;;;5040740;28;20024;-43
2023/04/12 11:36:04;;;;;;;8.70;2.28;;;14.10;99.90;;;;;;5039801;28;20027;-44
2023/04/12 11:38:30;;;;;;;8.80;1.88;;;14.30;99.90;;;;;;5038641;28;20658;-43
2023/04/12 11:40:55;;;;;;;7.53;1.77;;;14.40;99.90;;;;;;5040242;28;20025;-43
2023/04/12 11:43:21;;;;;;;8.52;1.65;;;14.40;99.90;;;;;;5040978;28;20037;-44
2023/04/12 11:45:47;;;;;;;6.78;1.90;;;14.50;99.90;;;;;;5040151;28;20742;-43
2023/04/12 11:48:12;;;;;;;5.85;1.65;;;14.60;99.90;;;;;;5040733;28;20555;-43
2023/04/12 11:50:39;;;;;;;8.02;1.90;;;14.60;99.90;;;;;;5039341;28;20516;-44
2023/04/12 11:53:15;;;;;;;6.90;1.80;;;14.70;99.90;;;;;;5040053;28;20032;-44
2023/04/12 11:55:46;;;;;;;8.82;2.10;;;14.80;99.90;;;;;;5039028;28;20385;-43
2023/04/12 11:58:11;;;;;;;6.80;1.92;;;14.90;99.90;;;;;;5021183;28;20026;-44
2023/04/12 12:00:39;;;;;;;8.95;2.10;;;14.90;99.90;;;;;;5034036;28;20047;-43
2023/04/12 12:03:05;;;;;;;5.03;1.52;;;14.80;99.90;;;;;;5039362;28;20063;-43
2023/04/12 12:05:35;;;;;;;5.68;1.88;;;14.70;99.90;;;;;;5040073;28;20132;-43
2023/04/12 12:08:04;;;;;;;4.07;1.60;;;14.50;99.90;;;;;;5040353;28;20043;-44
2023/04/12 12:10:30;;;;;;;4.75;1.55;;;14.30;99.90;;;;;;5039224;28;20029;-43
2023/04/12 12:12:59;;;;;;;3.95;1.50;;;14.30;99.90;;;;;;5040309;28;20515;-43
2023/04/12 12:15:29;;;;;;;3.05;1.13;;;14.30;99.90;;;;;;5040038;28;20111;-44
2023/04/12 12:17:55;;;;;;;3.47;1.30;;;14.20;99.90;;;;;;5039796;28;20017;-44
2023/04/12 12:20:21;;;;;;;6.78;1.50;;;14.20;99.90;;;;;;5040000;28;20047;-43
2023/04/12 12:22:47;;;;;;;4.68;1.48;;;14.20;99.90;;;;;;5039942;28;20178;-42
2023/04/12 12:25:13;;;;;;;6.70;1.40;;;14.10;99.90;;;;;;5040198;28;20103;-44
2023/04/12 12:27:46;;;;;;;5.18;1.73;;;14.10;99.90;;;;;;5040072;28;20541;-44
2023/04/12 12:30:15;;;;;;;5.22;1.40;;;14.10;99.90;;;;;;5040294;28;20528;-43
2023/04/12 12:32:41;;;;;;;5.10;1.42;;;14.20;99.90;;;;;;5039514;28;20021;-43
2023/04/12 12:35:09;;;;;;;7.05;1.92;;;14.20;99.90;;;;;;5040455;28;20033;-44
2023/04/12 12:37:35;;;;;;;5.45;1.45;;;14.20;99.90;;;;;;5039969;28;20067;-44
2023/04/12 12:40:12;;;;;;;6.72;1.48;;;14.20;99.90;;;;;;5039063;28;20373;-44
2023/04/12 12:42:49;;;;;;;6.53;1.20;;;14.20;99.90;;;;;;5040235;28;20029;-44
2023/04/12 12:45:16;;;;;;;5.13;1.10;;;14.30;99.90;;;;;;5040323;28;20747;-44
2023/04/12 12:47:50;;;;;;;4.82;1.40;;;14.40;99.90;;;;;;5039291;28;20487;-43
2023/04/12 12:50:21;;;;;;;5.40;1.40;;;14.50;99.90;;;;;;5040349;28;20084;-43
2023/04/12 12:52:47;;;;;;;4.90;1.38;;;14.50;99.90;;;;;;5042210;28;20036;-43
2023/04/12 12:55:14;;;;;;;4.13;1.20;;;14.50;99.90;;;;;;5044043;28;20032;-43